Alyeska Resort
Max's Hourly Weather Roundup
ALYESKA_MAX 2/26/2017
Click Here for Graph

        DATE  TIME   Air  Wind  Wind  Wind  BATT   Rel
                    Temp   Spd   Dir  Gust  Volt  Hum%
                      F   MPH   AVG   MPH   AVG   AVG

   2/26/2017 19:00    24     2   245     9 13.24    76
   2/26/2017 18:00    25     2   273     7 13.82    76
   2/26/2017 17:00    26     3   298    10 13.80    78
   2/26/2017 16:00    24     5   279    11 13.74    89
   2/26/2017 15:00    25     2   210     8 13.69    94
   2/26/2017 14:00    24     4   182     8 13.65    97
   2/26/2017 13:00    23     2   186     7 13.65    97
   2/26/2017 12:00    22     6   200    10 13.68   100
   2/26/2017 11:00    22     9   211    12 13.78    96
   2/26/2017 10:00    22     8   212    11 13.89    94
   2/26/2017 09:00    22     7   222    11 13.07    94
   2/26/2017 08:00    22     3   235     8 12.79    94
   2/26/2017 07:00    23     5   234    10 12.80    93
   2/26/2017 06:00    23     5   237    11 12.81    92
   2/26/2017 05:00    23     4   240     8 12.83    91
   2/26/2017 04:00    23     6   267    11 12.84    89
   2/26/2017 03:00    23     8   288    13 12.86    88
   2/26/2017 02:00    23     6   257    12 12.88    86
   2/26/2017 01:00    23     6   293    11 12.90    81
   2/25/2017 24:00    23     3   251     7 12.92    77
   2/25/2017 23:00    23     5   243    10 12.94    74
   2/25/2017 22:00    22     4   253    12 12.97    75
   2/25/2017 21:00    22     4   216    11 13.00    76
   2/25/2017 20:00    22     5   225    10 13.05    76


Click Here for Graph